Time;durP1;ratioP1;P1;durP2;ratioP2;P2;SDS_P1;SDS_P2;PMS_P1;PMS_P2;Temp;Humidity;BMP_temperature;BMP_pressure;BME280_temperature;BME280_humidity;BME280_pressure;Samples;Min_cycle;Max_cycle;Signal;HPM_P1;HPM_P2
2022/04/19 00:03:39;;;;;;;0.98;0.98;;;;;;;;;;12661110;23;20197;-70
2022/04/19 00:08:41;;;;;;;1.20;0.88;;;;;;;;;;12662543;23;20542;-70
2022/04/19 00:13:42;;;;;;;0.60;0.60;;;;;;;;;;12661256;23;20185;-70
2022/04/19 00:18:43;;;;;;;0.50;0.50;;;;;;;;;;12662237;23;20193;-69
2022/04/19 00:23:46;;;;;;;1.98;0.60;;;;;;;;;;12662079;23;20185;-69
2022/04/19 00:28:47;;;;;;;0.52;0.52;;;;;;;;;;12635985;23;20196;-70
2022/04/19 00:33:48;;;;;;;0.43;0.43;;;;;;;;;;12660596;23;20292;-66
2022/04/19 00:38:49;;;;;;;0.50;0.50;;;;;;;;;;12661548;23;20204;-70
2022/04/19 00:43:50;;;;;;;0.40;0.40;;;;;;;;;;12661001;23;20224;-69
2022/04/19 00:48:52;;;;;;;0.40;0.40;;;;;;;;;;12634173;23;20245;-69
2022/04/19 00:53:55;;;;;;;0.50;0.50;;;;;;;;;;12634530;23;20192;-70
2022/04/19 00:58:57;;;;;;;0.50;0.50;;;;;;;;;;12635066;23;20738;-69
2022/04/19 01:03:59;;;;;;;0.60;0.60;;;;;;;;;;12634278;23;20201;-70
2022/04/19 01:09:00;;;;;;;0.60;0.60;;;;;;;;;;12634227;23;20263;-69
2022/04/19 01:14:03;;;;;;;0.70;0.70;;;;;;;;;;12634255;23;20287;-70
2022/04/19 01:19:05;;;;;;;0.70;0.70;;;;;;;;;;12634023;23;20204;-69
2022/04/19 01:24:06;;;;;;;0.68;0.68;;;;;;;;;;12661324;23;20181;-69
2022/04/19 01:29:09;;;;;;;0.80;0.80;;;;;;;;;;12633666;23;20192;-69
2022/04/19 01:34:10;;;;;;;1.00;1.00;;;;;;;;;;12631353;23;20212;-69
2022/04/19 01:39:12;;;;;;;1.25;0.93;;;;;;;;;;12633771;23;20761;-69
2022/04/19 01:44:17;;;;;;;0.88;0.88;;;;;;;;;;12627340;23;20197;-70
2022/04/19 01:49:19;;;;;;;1.83;0.90;;;;;;;;;;12682344;23;20184;-69
2022/04/19 01:54:20;;;;;;;2.78;1.17;;;;;;;;;;12679868;23;20192;-69
2022/04/19 01:59:21;;;;;;;2.50;0.90;;;;;;;;;;12681351;23;20205;-70
2022/04/19 02:04:36;;;;;;;1.00;0.98;;;;;;;;;;12677713;23;20808;-69
2022/04/19 02:09:37;;;;;;;1.30;1.20;;;;;;;;;;12657511;23;20217;-69
2022/04/19 02:14:41;;;;;;;1.50;1.40;;;;;;;;;;12680057;23;20181;-69
2022/04/19 02:19:44;;;;;;;0.90;0.90;;;;;;;;;;12679429;23;20200;-69
2022/04/19 02:24:45;;;;;;;1.30;0.80;;;;;;;;;;12656746;23;20188;-70
2022/04/19 02:29:46;;;;;;;1.90;0.98;;;;;;;;;;12657881;23;20231;-68
2022/04/19 02:34:48;;;;;;;0.77;0.77;;;;;;;;;;12680620;23;20251;-67
2022/04/19 02:39:50;;;;;;;0.90;0.90;;;;;;;;;;12680371;23;20186;-70
2022/04/19 02:44:53;;;;;;;0.80;0.80;;;;;;;;;;12655583;23;20280;-69
2022/04/19 02:49:55;;;;;;;1.75;0.77;;;;;;;;;;12679098;23;20663;-69
2022/04/19 02:54:56;;;;;;;0.80;0.80;;;;;;;;;;12657992;23;20534;-69
2022/04/19 02:59:57;;;;;;;0.90;0.90;;;;;;;;;;12659102;23;20184;-69
2022/04/19 03:04:58;;;;;;;0.95;0.95;;;;;;;;;;12680146;23;20593;-69
2022/04/19 03:09:59;;;;;;;0.93;0.93;;;;;;;;;;12681831;23;20210;-69
2022/04/19 03:15:00;;;;;;;0.90;0.90;;;;;;;;;;12680616;23;20570;-69
2022/04/19 03:20:01;;;;;;;1.33;0.80;;;;;;;;;;12659034;23;20185;-69
2022/04/19 03:30:24;;;;;;;0.98;0.98;;;;;;;;;;12656476;23;20569;-68
2022/04/19 03:35:25;;;;;;;0.90;0.90;;;;;;;;;;12681895;23;20283;-69
2022/04/19 03:40:26;;;;;;;2.67;0.90;;;;;;;;;;12657781;23;20284;-69
2022/04/19 03:45:27;;;;;;;1.73;1.20;;;;;;;;;;12683435;23;20195;-69
2022/04/19 03:50:28;;;;;;;1.95;1.20;;;;;;;;;;12681682;23;20216;-69
2022/04/19 03:55:29;;;;;;;1.35;1.30;;;;;;;;;;12660441;23;20193;-69
2022/04/19 04:00:30;;;;;;;1.40;1.27;;;;;;;;;;12685157;23;20491;-69
2022/04/19 04:05:32;;;;;;;1.20;1.20;;;;;;;;;;12684404;23;20191;-69
2022/04/19 04:10:33;;;;;;;1.55;1.20;;;;;;;;;;12661264;23;20184;-69
2022/04/19 04:15:34;;;;;;;1.23;1.23;;;;;;;;;;12661456;23;20196;-69
2022/04/19 04:20:35;;;;;;;1.33;1.33;;;;;;;;;;12683406;23;20184;-69
2022/04/19 04:25:37;;;;;;;1.05;1.05;;;;;;;;;;12660581;23;20183;-68
2022/04/19 04:30:38;;;;;;;1.58;1.48;;;;;;;;;;12661730;23;20204;-69
2022/04/19 04:35:39;;;;;;;1.17;1.17;;;;;;;;;;12684673;23;20205;-69
2022/04/19 04:40:41;;;;;;;1.00;1.00;;;;;;;;;;12685080;23;20213;-69
2022/04/19 04:49:35;;;;;;;1.25;1.20;;;;;;;;;;12634931;23;20180;-69
2022/04/19 04:51:08;;;;;;;3.58;1.48;;;;;;;;;;12635416;23;20212;-68
2022/04/19 04:56:09;;;;;;;1.90;1.17;;;;;;;;;;12634343;23;20208;-69
2022/04/19 05:01:10;;;;;;;1.23;1.20;;;;;;;;;;12630273;23;20547;-69
2022/04/19 05:06:11;;;;;;;2.72;1.33;;;;;;;;;;12618475;23;20193;-69
2022/04/19 05:11:15;;;;;;;2.10;1.45;;;;;;;;;;12630150;23;20196;-68
2022/04/19 05:16:16;;;;;;;1.65;1.33;;;;;;;;;;12630254;23;20201;-68
2022/04/19 05:21:17;;;;;;;1.15;1.15;;;;;;;;;;12658359;23;20176;-69
2022/04/19 05:26:20;;;;;;;1.75;1.13;;;;;;;;;;12630845;23;20189;-69
2022/04/19 05:31:22;;;;;;;1.70;1.25;;;;;;;;;;12632047;23;20257;-69
2022/04/19 05:36:23;;;;;;;1.00;1.00;;;;;;;;;;12630242;23;20590;-69
2022/04/19 05:41:25;;;;;;;1.00;1.00;;;;;;;;;;12632205;23;20208;-69
2022/04/19 05:46:27;;;;;;;1.05;1.05;;;;;;;;;;12628644;23;20185;-69
2022/04/19 05:51:30;;;;;;;1.10;1.08;;;;;;;;;;12627080;23;20299;-70
2022/04/19 05:56:33;;;;;;;1.02;1.00;;;;;;;;;;12632041;23;20224;-69
2022/04/19 06:06:55;;;;;;;1.45;1.10;;;;;;;;;;12630350;23;20180;-69
2022/04/19 06:11:58;;;;;;;2.83;1.50;;;;;;;;;;12630347;23;20181;-69
2022/04/19 06:17:00;;;;;;;1.48;1.35;;;;;;;;;;12631501;23;20276;-69
2022/04/19 06:22:01;;;;;;;1.35;1.35;;;;;;;;;;12630289;23;20519;-69
2022/04/19 06:27:03;;;;;;;2.05;1.38;;;;;;;;;;12618316;23;20196;-69
2022/04/19 06:32:04;;;;;;;1.38;1.35;;;;;;;;;;12629702;23;20228;-69
2022/04/19 06:37:11;;;;;;;1.38;1.38;;;;;;;;;;12631547;23;20208;-69
2022/04/19 06:42:16;;;;;;;2.75;1.55;;;;;;;;;;12630707;23;20200;-70
2022/04/19 06:47:58;;;;;;;1.55;1.40;;;;;;;;;;12462346;23;20190;-65
2022/04/19 06:53:00;;;;;;;8.30;1.80;;;;;;;;;;12578621;23;20197;-70
2022/04/19 06:58:24;;;;;;;4.97;1.10;;;;;;;;;;12600613;23;20288;-69
2022/04/19 07:03:26;;;;;;;1.15;1.08;;;;;;;;;;12629482;23;20200;-69
2022/04/19 07:08:45;;;;;;;0.90;0.90;;;;;;;;;;12656621;23;20192;-69
2022/04/19 07:13:47;;;;;;;1.73;1.27;;;;;;;;;;12634495;23;20283;-70
2022/04/19 07:19:00;;;;;;;2.35;1.05;;;;;;;;;;12631406;23;20188;-69
2022/04/19 07:29:21;;;;;;;1.17;1.13;;;;;;;;;;12635696;23;20582;-69
2022/04/19 07:34:25;;;;;;;2.25;0.98;;;;;;;;;;12633367;23;20209;-70
2022/04/19 07:39:26;;;;;;;1.00;1.00;;;;;;;;;;12634274;23;20201;-69
2022/04/19 07:44:31;;;;;;;0.95;0.95;;;;;;;;;;12632965;23;20235;-69
2022/04/19 07:49:34;;;;;;;0.60;0.60;;;;;;;;;;12683330;23;20255;-69
2022/04/19 07:54:35;;;;;;;1.30;0.80;;;;;;;;;;12682382;23;20212;-70
2022/04/19 07:59:36;;;;;;;5.10;0.70;;;;;;;;;;12660772;23;20196;-69
2022/04/19 08:04:38;;;;;;;0.80;0.80;;;;;;;;;;12681663;23;20271;-69
2022/04/19 08:09:39;;;;;;;0.73;0.70;;;;;;;;;;12682604;23;20191;-69
2022/04/19 08:14:41;;;;;;;2.40;0.90;;;;;;;;;;12659298;23;20180;-70
2022/04/19 08:19:42;;;;;;;0.77;0.70;;;;;;;;;;12681254;23;20655;-69
2022/04/19 08:24:43;;;;;;;2.60;0.70;;;;;;;;;;12681676;23;20264;-69
2022/04/19 08:29:45;;;;;;;0.80;0.80;;;;;;;;;;12681787;23;20195;-69
2022/04/19 08:34:46;;;;;;;0.57;0.57;;;;;;;;;;12680970;23;20212;-70
2022/04/19 08:39:48;;;;;;;0.90;0.50;;;;;;;;;;12682523;23;20193;-69
2022/04/19 08:44:49;;;;;;;0.93;0.50;;;;;;;;;;12657114;23;20546;-70
2022/04/19 08:49:53;;;;;;;0.50;0.50;;;;;;;;;;12658430;23;20188;-70
2022/04/19 09:00:15;;;;;;;0.70;0.70;;;;;;;;;;12657596;23;20185;-68
2022/04/19 09:05:20;;;;;;;1.55;0.47;;;;;;;;;;12657335;23;20193;-70
2022/04/19 09:10:31;;;;;;;1.17;1.08;;;;;;;;;;12657889;23;20596;-70
2022/04/19 09:15:34;;;;;;;0.82;0.60;;;;;;;;;;12681305;23;20204;-70
2022/04/19 09:20:35;;;;;;;0.75;0.75;;;;;;;;;;12659362;23;20188;-70
2022/04/19 09:25:37;;;;;;;0.50;0.50;;;;;;;;;;12657629;23;20247;-70
2022/04/19 09:30:39;;;;;;;0.63;0.60;;;;;;;;;;12657484;23;20255;-70
2022/04/19 09:35:50;;;;;;;1.27;0.50;;;;;;;;;;12659300;23;20227;-70
2022/04/19 09:40:51;;;;;;;0.52;0.52;;;;;;;;;;12657989;23;20196;-71
2022/04/19 09:45:55;;;;;;;1.40;0.50;;;;;;;;;;12658063;23;20248;-70
2022/04/19 09:50:57;;;;;;;0.98;0.70;;;;;;;;;;12657405;23;20256;-68
2022/04/19 09:55:58;;;;;;;1.20;0.50;;;;;;;;;;12657937;23;20544;-70
2022/04/19 10:01:00;;;;;;;0.43;0.43;;;;;;;;;;12644758;23;20665;-70
2022/04/19 10:08:10;;;;;;;0.47;0.47;;;;;;;;;;12657665;23;20205;-70
2022/04/19 10:11:32;;;;;;;1.15;0.50;;;;;;;;;;12656818;23;20859;-69
2022/04/19 10:16:33;;;;;;;0.88;0.75;;;;;;;;;;12658011;23;20227;-69
2022/04/19 10:21:41;;;;;;;0.80;0.40;;;;;;;;;;12657102;23;20668;-69
2022/04/19 10:26:46;;;;;;;0.40;0.40;;;;;;;;;;12657021;23;20188;-70
2022/04/19 10:32:04;;;;;;;2.42;0.52;;;;;;;;;;12644849;23;20678;-70
2022/04/19 10:37:15;;;;;;;0.57;0.50;;;;;;;;;;12655422;23;20584;-70
2022/04/19 10:42:32;;;;;;;0.57;0.50;;;;;;;;;;12655467;23;20259;-70
2022/04/19 10:47:33;;;;;;;0.40;0.40;;;;;;;;;;12636015;23;20709;-71
2022/04/19 10:52:37;;;;;;;0.85;0.50;;;;;;;;;;12660621;23;20216;-70
2022/04/19 11:03:02;;;;;;;0.82;0.50;;;;;;;;;;12659989;23;20277;-71
2022/04/19 11:08:23;;;;;;;2.33;0.60;;;;;;;;;;12659340;23;20197;-71
2022/04/19 11:13:26;;;;;;;1.00;0.50;;;;;;;;;;12660377;23;20177;-71
2022/04/19 11:18:28;;;;;;;0.50;0.50;;;;;;;;;;12659259;23;20363;-70
2022/04/19 11:23:29;;;;;;;0.77;0.68;;;;;;;;;;12650131;23;20182;-71
2022/04/19 11:28:31;;;;;;;1.05;0.90;;;;;;;;;;12656589;23;20252;-70
2022/04/19 11:33:33;;;;;;;1.30;1.30;;;;;;;;;;12658305;23;20542;-71
2022/04/19 11:38:36;;;;;;;1.30;1.25;;;;;;;;;;12659926;23;20188;-72
2022/04/19 11:48:57;;;;;;;1.30;1.30;;;;;;;;;;12659537;23;20292;-71
2022/04/19 11:53:59;;;;;;;1.45;1.45;;;;;;;;;;12647445;23;20639;-71
2022/04/19 11:59:00;;;;;;;1.88;1.35;;;;;;;;;;12659558;23;20199;-70
2022/04/19 12:04:10;;;;;;;2.15;1.40;;;;;;;;;;12657585;23;20204;-71
2022/04/19 12:09:14;;;;;;;1.40;0.90;;;;;;;;;;12659990;23;20262;-72
2022/04/19 12:14:28;;;;;;;1.08;1.08;;;;;;;;;;12660087;23;20643;-72
2022/04/19 12:19:33;;;;;;;1.23;1.23;;;;;;;;;;12650816;23;20202;-72
2022/04/19 12:24:34;;;;;;;1.10;1.10;;;;;;;;;;12656408;23;20821;-72
2022/04/19 12:29:36;;;;;;;1.35;0.90;;;;;;;;;;12660023;23;20327;-72
2022/04/19 12:34:38;;;;;;;1.25;1.00;;;;;;;;;;12652345;23;20268;-71
2022/04/19 12:39:39;;;;;;;1.75;0.80;;;;;;;;;;12657176;23;20816;-72
2022/04/19 12:44:40;;;;;;;2.10;1.00;;;;;;;;;;12655058;23;20200;-73
2022/04/19 12:49:43;;;;;;;1.83;0.90;;;;;;;;;;12646755;23;20197;-72
2022/04/19 12:54:50;;;;;;;3.20;0.85;;;;;;;;;;12657815;23;20271;-71
2022/04/19 12:59:52;;;;;;;0.60;0.60;;;;;;;;;;12661244;23;20204;-72
2022/04/19 13:04:53;;;;;;;0.70;0.70;;;;;;;;;;12658775;23;20205;-71
2022/04/19 13:15:14;;;;;;;1.00;0.77;;;;;;;;;;12647999;23;20296;-72
2022/04/19 13:20:15;;;;;;;0.68;0.60;;;;;;;;;;12659341;23;20210;-70
2022/04/19 13:25:20;;;;;;;0.50;0.50;;;;;;;;;;12634404;23;20192;-69
2022/04/19 13:30:21;;;;;;;0.50;0.50;;;;;;;;;;12659255;23;20184;-71
2022/04/19 13:35:22;;;;;;;1.33;0.50;;;;;;;;;;12660869;23;20193;-69
2022/04/19 13:40:23;;;;;;;0.50;0.50;;;;;;;;;;12646021;23;20648;-70
2022/04/19 13:45:24;;;;;;;2.65;0.55;;;;;;;;;;12657620;23;20235;-72
2022/04/19 13:50:25;;;;;;;1.48;0.50;;;;;;;;;;12629228;23;20247;-72
2022/04/19 13:55:28;;;;;;;2.38;0.50;;;;;;;;;;12628135;23;20208;-72
2022/04/19 14:00:29;;;;;;;1.02;0.40;;;;;;;;;;12654243;23;20184;-73
2022/04/19 14:05:31;;;;;;;0.50;0.50;;;;;;;;;;12657846;23;20216;-73
2022/04/19 14:10:32;;;;;;;1.10;0.40;;;;;;;;;;12645189;23;20813;-73
2022/04/19 14:15:33;;;;;;;1.55;0.40;;;;;;;;;;12660547;23;20762;-73
2022/04/19 14:20:34;;;;;;;0.35;0.35;;;;;;;;;;12657557;23;20268;-73
2022/04/19 14:25:35;;;;;;;0.50;0.30;;;;;;;;;;12654983;23;20181;-72
2022/04/19 14:35:56;;;;;;;0.50;0.50;;;;;;;;;;12646759;23;20211;-73
2022/04/19 14:40:57;;;;;;;0.98;0.40;;;;;;;;;;12653440;23;20255;-73
2022/04/19 14:45:59;;;;;;;0.40;0.40;;;;;;;;;;12655869;23;20176;-73
2022/04/19 14:56:20;;;;;;;0.70;0.60;;;;;;;;;;12652976;23;20272;-73
2022/04/19 15:01:21;;;;;;;1.92;0.38;;;;;;;;;;12648054;23;20197;-73
2022/04/19 15:06:22;;;;;;;0.45;0.45;;;;;;;;;;12653108;23;20191;-73
2022/04/19 15:11:23;;;;;;;0.40;0.40;;;;;;;;;;12634203;23;20220;-73
2022/04/19 15:16:24;;;;;;;0.65;0.40;;;;;;;;;;12659440;23;20204;-72
2022/04/19 15:21:25;;;;;;;2.05;0.40;;;;;;;;;;12658368;23;20767;-72
2022/04/19 15:26:27;;;;;;;0.40;0.40;;;;;;;;;;12659318;23;20193;-72
2022/04/19 15:31:28;;;;;;;1.25;0.40;;;;;;;;;;12648114;23;20208;-72
2022/04/19 15:36:31;;;;;;;0.40;0.40;;;;;;;;;;12662604;23;20693;-72
2022/04/19 15:41:32;;;;;;;0.60;0.60;;;;;;;;;;12659722;23;20200;-72
2022/04/19 15:46:33;;;;;;;1.60;0.70;;;;;;;;;;12663572;23;20623;-72
2022/04/19 15:51:35;;;;;;;2.30;0.40;;;;;;;;;;12662693;23;20201;-72
2022/04/19 15:56:36;;;;;;;0.43;0.43;;;;;;;;;;12651787;23;20207;-71
2022/04/19 16:01:37;;;;;;;0.82;0.38;;;;;;;;;;12659389;23;20742;-72
2022/04/19 16:06:39;;;;;;;0.43;0.43;;;;;;;;;;12661849;23;20691;-72
2022/04/19 16:11:40;;;;;;;2.90;0.40;;;;;;;;;;12661487;23;20836;-72
2022/04/19 16:27:35;;;;;;;1.85;0.40;;;;;;;;;;12595965;23;20199;-72
2022/04/19 16:32:36;;;;;;;0.50;0.50;;;;;;;;;;12656972;23;20208;-70
2022/04/19 16:37:37;;;;;;;0.98;0.40;;;;;;;;;;12660124;23;20197;-69
2022/04/19 16:42:39;;;;;;;1.10;0.40;;;;;;;;;;12657591;23;20201;-71
2022/04/19 16:47:40;;;;;;;0.40;0.40;;;;;;;;;;12660025;23;20192;-71
2022/04/19 16:52:42;;;;;;;0.40;0.40;;;;;;;;;;12643484;23;20199;-71
2022/04/19 16:57:43;;;;;;;0.88;0.40;;;;;;;;;;12633802;23;20651;-69
2022/04/19 17:02:44;;;;;;;1.23;0.50;;;;;;;;;;12662201;23;20284;-70
2022/04/19 17:07:45;;;;;;;0.40;0.40;;;;;;;;;;12658527;23;20192;-70
2022/04/19 17:12:46;;;;;;;1.08;0.75;;;;;;;;;;12658741;23;20211;-70
2022/04/19 17:17:47;;;;;;;4.45;0.60;;;;;;;;;;12657994;23;20192;-71
2022/04/19 17:22:48;;;;;;;0.95;0.55;;;;;;;;;;12649914;23;20181;-71
2022/04/19 17:27:49;;;;;;;2.92;0.77;;;;;;;;;;12659323;23;20251;-70
2022/04/19 17:32:50;;;;;;;1.33;0.60;;;;;;;;;;12652328;23;20744;-70
2022/04/19 17:37:52;;;;;;;1.73;0.57;;;;;;;;;;12656676;23;20192;-70
2022/04/19 17:42:53;;;;;;;0.70;0.70;;;;;;;;;;12654453;23;20239;-70
2022/04/19 17:47:55;;;;;;;1.60;1.50;;;;;;;;;;12642441;23;20189;-69
2022/04/19 17:58:15;;;;;;;3.22;1.38;;;;;;;;;;12655507;23;20201;-70
2022/04/19 18:03:16;;;;;;;2.45;1.83;;;;;;;;;;12654208;23;20204;-70
2022/04/19 18:08:17;;;;;;;1.80;1.70;;;;;;;;;;12656560;23;20187;-69
2022/04/19 18:13:18;;;;;;;1.88;1.63;;;;;;;;;;12623054;23;20212;-69
2022/04/19 18:18:19;;;;;;;1.60;1.60;;;;;;;;;;12655671;23;20277;-67
2022/04/19 18:28:42;;;;;;;1.52;0.90;;;;;;;;;;12657972;23;20177;-70
2022/04/19 18:33:44;;;;;;;3.13;1.00;;;;;;;;;;12656083;23;20200;-70
2022/04/19 18:38:46;;;;;;;0.60;0.60;;;;;;;;;;12655183;23;20207;-72
2022/04/19 18:43:47;;;;;;;0.60;0.60;;;;;;;;;;12640274;23;20769;-69
2022/04/19 18:48:48;;;;;;;1.23;0.77;;;;;;;;;;12655787;23;20761;-63
2022/04/19 18:53:49;;;;;;;1.75;0.68;;;;;;;;;;12655421;23;20238;-68
2022/04/19 18:58:50;;;;;;;0.98;0.70;;;;;;;;;;12654715;23;20927;-68
2022/04/19 19:03:51;;;;;;;0.73;0.73;;;;;;;;;;12627524;23;20228;-69
2022/04/19 19:08:52;;;;;;;2.55;1.30;;;;;;;;;;12648099;23;20196;-68
2022/04/19 19:13:53;;;;;;;2.33;1.50;;;;;;;;;;12654015;23;20556;-66
2022/04/19 19:18:54;;;;;;;0.90;0.90;;;;;;;;;;12656146;23;20228;-70
2022/04/19 19:23:56;;;;;;;1.25;1.10;;;;;;;;;;12658262;23;20256;-69
2022/04/19 19:28:58;;;;;;;2.13;1.88;;;;;;;;;;12658845;23;20200;-68
2022/04/19 19:34:00;;;;;;;2.53;2.05;;;;;;;;;;12661897;23;20667;-67
2022/04/19 19:39:01;;;;;;;1.90;1.90;;;;;;;;;;12650629;23;20311;-67
2022/04/19 19:44:02;;;;;;;2.08;1.75;;;;;;;;;;12659525;23;20211;-68
2022/04/19 19:49:03;;;;;;;1.55;1.55;;;;;;;;;;12656672;23;20177;-69
2022/04/19 19:54:05;;;;;;;1.80;1.63;;;;;;;;;;12657340;23;20193;-68
2022/04/19 19:59:06;;;;;;;7.72;1.40;;;;;;;;;;12632152;23;20237;-67
2022/04/19 20:04:07;;;;;;;1.50;1.40;;;;;;;;;;12651631;23;20209;-68
2022/04/19 20:09:08;;;;;;;3.25;1.60;;;;;;;;;;12646072;23;20187;-68
2022/04/19 20:14:10;;;;;;;1.10;1.10;;;;;;;;;;12657017;23;20188;-68
2022/04/19 20:19:11;;;;;;;1.30;1.30;;;;;;;;;;12656141;23;20209;-68
2022/04/19 20:24:12;;;;;;;1.80;1.65;;;;;;;;;;12655560;23;20176;-67
2022/04/19 20:29:14;;;;;;;1.70;1.70;;;;;;;;;;12655596;23;20587;-68
2022/04/19 20:34:15;;;;;;;1.77;1.67;;;;;;;;;;12632919;23;20212;-69
2022/04/19 20:39:16;;;;;;;1.75;1.15;;;;;;;;;;12660877;23;20205;-69
2022/04/19 20:44:17;;;;;;;1.30;1.30;;;;;;;;;;12634058;23;20220;-68
2022/04/19 20:54:39;;;;;;;1.30;1.20;;;;;;;;;;12659715;23;20524;-69
2022/04/19 20:59:44;;;;;;;2.05;1.27;;;;;;;;;;12657388;23;20196;-69
2022/04/19 21:04:45;;;;;;;2.40;1.33;;;;;;;;;;12659794;23;20208;-69
2022/04/19 21:09:46;;;;;;;0.90;0.90;;;;;;;;;;12660262;23;20308;-69
2022/04/19 21:14:47;;;;;;;1.40;1.30;;;;;;;;;;12658428;23;20713;-69
2022/04/19 21:19:48;;;;;;;1.67;1.33;;;;;;;;;;12660603;23;20272;-68
2022/04/19 21:24:49;;;;;;;1.17;1.17;;;;;;;;;;12658810;23;20185;-68
2022/04/19 21:29:52;;;;;;;3.45;1.20;;;;;;;;;;12659807;23;20192;-68
2022/04/19 21:34:53;;;;;;;1.20;1.20;;;;;;;;;;12659357;23;20725;-69
2022/04/19 21:39:55;;;;;;;1.95;1.10;;;;;;;;;;12659674;23;20279;-68
2022/04/19 21:44:56;;;;;;;2.15;1.70;;;;;;;;;;12659478;23;20201;-69
2022/04/19 21:49:57;;;;;;;1.55;1.50;;;;;;;;;;12660437;23;20243;-69
2022/04/19 21:54:58;;;;;;;2.33;1.25;;;;;;;;;;12648442;23;20188;-68
2022/04/19 21:59:59;;;;;;;2.50;1.50;;;;;;;;;;12659130;23;20204;-69
2022/04/19 22:05:00;;;;;;;1.77;1.27;;;;;;;;;;12633265;23;20283;-69
2022/04/19 22:10:01;;;;;;;1.52;1.42;;;;;;;;;;12661458;23;20260;-69
2022/04/19 22:15:03;;;;;;;1.67;1.58;;;;;;;;;;12660924;23;20196;-69
2022/04/19 22:20:04;;;;;;;2.58;1.13;;;;;;;;;;12657347;23;20205;-69
2022/04/19 22:25:05;;;;;;;1.20;1.20;;;;;;;;;;12653923;23;20240;-68
2022/04/19 22:30:06;;;;;;;1.08;1.08;;;;;;;;;;12661063;23;20187;-69
2022/04/19 22:35:08;;;;;;;1.40;1.40;;;;;;;;;;12658583;23;20272;-69
2022/04/19 22:40:09;;;;;;;1.67;1.50;;;;;;;;;;12664663;23;20197;-69
2022/04/19 22:45:10;;;;;;;1.20;1.20;;;;;;;;;;12668184;23;20188;-69
2022/04/19 22:50:11;;;;;;;1.20;1.20;;;;;;;;;;12656340;23;20240;-69
2022/04/19 22:55:12;;;;;;;1.10;1.10;;;;;;;;;;12666884;23;20519;-67
2022/04/19 23:00:14;;;;;;;3.10;1.42;;;;;;;;;;12666789;23;20283;-64
2022/04/19 23:05:15;;;;;;;1.13;1.00;;;;;;;;;;12667517;23;20754;-68
2022/04/19 23:10:16;;;;;;;5.60;1.20;;;;;;;;;;12667416;23;20184;-69
2022/04/19 23:15:17;;;;;;;1.33;1.20;;;;;;;;;;12629063;23;20200;-69
2022/04/19 23:20:18;;;;;;;2.05;1.30;;;;;;;;;;12664113;23;20242;-68
2022/04/19 23:25:19;;;;;;;2.97;1.35;;;;;;;;;;12665205;23;20177;-69
2022/04/19 23:30:24;;;;;;;1.48;1.38;;;;;;;;;;12666378;23;20189;-69
2022/04/19 23:35:25;;;;;;;1.40;1.40;;;;;;;;;;12666607;23;20229;-69
2022/04/19 23:40:26;;;;;;;1.58;1.42;;;;;;;;;;12655565;23;20273;-69
2022/04/19 23:45:27;;;;;;;4.65;1.92;;;;;;;;;;12661429;23;20232;-70
2022/04/19 23:50:28;;;;;;;1.40;1.40;;;;;;;;;;12664108;23;20176;-70
2022/04/19 23:55:29;;;;;;;1.60;1.15;;;;;;;;;;12663264;23;20282;-69
